sensor_id;sensor_type;location;lat;lon;timestamp;P1;durP1;ratioP1;P2;durP2;ratioP2
4700;SDS011;8724;51.272;6.554;2022-10-16T00:01:38;2.70;;;1.87;;
4700;SDS011;8724;51.272;6.554;2022-10-16T00:04:07;2.53;;;1.97;;
4700;SDS011;8724;51.272;6.554;2022-10-16T00:06:36;4.00;;;2.00;;
4700;SDS011;8724;51.272;6.554;2022-10-16T00:09:05;3.50;;;2.27;;
4700;SDS011;8724;51.272;6.554;2022-10-16T00:11:37;4.30;;;1.93;;
4700;SDS011;8724;51.272;6.554;2022-10-16T00:14:07;5.70;;;1.80;;
4700;SDS011;8724;51.272;6.554;2022-10-16T00:16:37;4.03;;;2.27;;
4700;SDS011;8724;51.272;6.554;2022-10-16T00:19:06;2.63;;;2.10;;
4700;SDS011;8724;51.272;6.554;2022-10-16T00:21:35;3.93;;;1.70;;
4700;SDS011;8724;51.272;6.554;2022-10-16T00:24:04;12.47;;;2.80;;
4700;SDS011;8724;51.272;6.554;2022-10-16T00:26:36;2.17;;;1.60;;
4700;SDS011;8724;51.272;6.554;2022-10-16T00:29:05;4.50;;;2.87;;
4700;SDS011;8724;51.272;6.554;2022-10-16T00:31:34;2.63;;;2.30;;
4700;SDS011;8724;51.272;6.554;2022-10-16T00:34:02;2.83;;;1.80;;
4700;SDS011;8724;51.272;6.554;2022-10-16T00:36:31;5.33;;;2.43;;
4700;SDS011;8724;51.272;6.554;2022-10-16T00:38:59;2.87;;;1.70;;
4700;SDS011;8724;51.272;6.554;2022-10-16T00:41:28;5.23;;;3.00;;
4700;SDS011;8724;51.272;6.554;2022-10-16T00:43:59;3.60;;;1.80;;
4700;SDS011;8724;51.272;6.554;2022-10-16T00:46:29;2.77;;;1.93;;
4700;SDS011;8724;51.272;6.554;2022-10-16T00:49:04;2.43;;;1.77;;
4700;SDS011;8724;51.272;6.554;2022-10-16T00:51:36;2.27;;;1.87;;
4700;SDS011;8724;51.272;6.554;2022-10-16T00:54:08;2.80;;;1.70;;
4700;SDS011;8724;51.272;6.554;2022-10-16T00:56:38;1.87;;;1.67;;
4700;SDS011;8724;51.272;6.554;2022-10-16T00:59:10;4.90;;;1.83;;
4700;SDS011;8724;51.272;6.554;2022-10-16T01:01:43;3.80;;;1.40;;
4700;SDS011;8724;51.272;6.554;2022-10-16T01:04:11;2.83;;;1.80;;
4700;SDS011;8724;51.272;6.554;2022-10-16T01:06:41;2.20;;;1.27;;
4700;SDS011;8724;51.272;6.554;2022-10-16T01:09:16;3.37;;;1.80;;
4700;SDS011;8724;51.272;6.554;2022-10-16T01:11:50;1.43;;;1.30;;
4700;SDS011;8724;51.272;6.554;2022-10-16T01:14:29;1.53;;;1.40;;
4700;SDS011;8724;51.272;6.554;2022-10-16T01:17:06;1.73;;;1.57;;
4700;SDS011;8724;51.272;6.554;2022-10-16T01:22:33;1.53;;;1.43;;
4700;SDS011;8724;51.272;6.554;2022-10-16T01:25:11;2.30;;;1.10;;
4700;SDS011;8724;51.272;6.554;2022-10-16T01:27:48;4.50;;;1.50;;
4700;SDS011;8724;51.272;6.554;2022-10-16T01:30:18;2.07;;;1.40;;
4700;SDS011;8724;51.272;6.554;2022-10-16T01:32:51;1.67;;;1.07;;
4700;SDS011;8724;51.272;6.554;2022-10-16T01:35:24;2.00;;;1.37;;
4700;SDS011;8724;51.272;6.554;2022-10-16T01:37:55;2.23;;;1.20;;
4700;SDS011;8724;51.272;6.554;2022-10-16T01:40:29;1.20;;;1.10;;
4700;SDS011;8724;51.272;6.554;2022-10-16T01:43:03;1.10;;;1.10;;
4700;SDS011;8724;51.272;6.554;2022-10-16T01:45:34;2.73;;;1.53;;
4700;SDS011;8724;51.272;6.554;2022-10-16T01:48:04;1.63;;;1.20;;
4700;SDS011;8724;51.272;6.554;2022-10-16T01:50:37;2.80;;;1.40;;
4700;SDS011;8724;51.272;6.554;2022-10-16T01:53:09;1.60;;;1.20;;
4700;SDS011;8724;51.272;6.554;2022-10-16T01:55:41;1.40;;;1.20;;
4700;SDS011;8724;51.272;6.554;2022-10-16T01:58:13;1.27;;;1.17;;
4700;SDS011;8724;51.272;6.554;2022-10-16T02:00:43;2.60;;;1.27;;
4700;SDS011;8724;51.272;6.554;2022-10-16T02:03:14;1.30;;;1.20;;
4700;SDS011;8724;51.272;6.554;2022-10-16T02:05:47;1.47;;;1.23;;
4700;SDS011;8724;51.272;6.554;2022-10-16T02:08:19;4.37;;;0.90;;
4700;SDS011;8724;51.272;6.554;2022-10-16T02:10:48;2.83;;;1.20;;
4700;SDS011;8724;51.272;6.554;2022-10-16T02:13:19;2.67;;;1.20;;
4700;SDS011;8724;51.272;6.554;2022-10-16T02:15:51;1.93;;;1.27;;
4700;SDS011;8724;51.272;6.554;2022-10-16T02:18:20;0.97;;;0.97;;
4700;SDS011;8724;51.272;6.554;2022-10-16T02:20:50;0.90;;;0.90;;
4700;SDS011;8724;51.272;6.554;2022-10-16T02:23:24;1.77;;;1.20;;
4700;SDS011;8724;51.272;6.554;2022-10-16T02:26:00;2.27;;;1.30;;
4700;SDS011;8724;51.272;6.554;2022-10-16T02:28:34;1.53;;;1.07;;
4700;SDS011;8724;51.272;6.554;2022-10-16T02:31:08;3.47;;;1.10;;
4700;SDS011;8724;51.272;6.554;2022-10-16T02:33:39;1.90;;;1.10;;
4700;SDS011;8724;51.272;6.554;2022-10-16T02:36:10;2.20;;;1.10;;
4700;SDS011;8724;51.272;6.554;2022-10-16T02:38:39;2.30;;;1.10;;
4700;SDS011;8724;51.272;6.554;2022-10-16T02:41:08;1.90;;;1.30;;
4700;SDS011;8724;51.272;6.554;2022-10-16T02:43:38;1.53;;;1.00;;
4700;SDS011;8724;51.272;6.554;2022-10-16T02:46:06;2.80;;;1.30;;
4700;SDS011;8724;51.272;6.554;2022-10-16T02:48:35;1.33;;;1.10;;
4700;SDS011;8724;51.272;6.554;2022-10-16T02:51:03;0.90;;;0.90;;
4700;SDS011;8724;51.272;6.554;2022-10-16T02:53:32;1.20;;;1.10;;
4700;SDS011;8724;51.272;6.554;2022-10-16T02:56:00;2.00;;;1.13;;
4700;SDS011;8724;51.272;6.554;2022-10-16T02:58:28;1.53;;;1.00;;
4700;SDS011;8724;51.272;6.554;2022-10-16T03:00:58;1.23;;;1.13;;
4700;SDS011;8724;51.272;6.554;2022-10-16T03:03:26;1.07;;;1.00;;
4700;SDS011;8724;51.272;6.554;2022-10-16T03:05:54;3.43;;;1.03;;
4700;SDS011;8724;51.272;6.554;2022-10-16T03:08:22;1.60;;;1.20;;
4700;SDS011;8724;51.272;6.554;2022-10-16T03:10:51;1.00;;;1.00;;
4700;SDS011;8724;51.272;6.554;2022-10-16T03:13:20;3.23;;;1.00;;
4700;SDS011;8724;51.272;6.554;2022-10-16T03:15:49;2.00;;;1.00;;
4700;SDS011;8724;51.272;6.554;2022-10-16T03:18:19;0.90;;;0.90;;
4700;SDS011;8724;51.272;6.554;2022-10-16T03:20:48;2.20;;;1.50;;
4700;SDS011;8724;51.272;6.554;2022-10-16T03:23:16;1.50;;;0.97;;
4700;SDS011;8724;51.272;6.554;2022-10-16T03:25:44;0.97;;;0.97;;
4700;SDS011;8724;51.272;6.554;2022-10-16T03:28:14;1.13;;;0.80;;
4700;SDS011;8724;51.272;6.554;2022-10-16T03:30:42;0.90;;;0.90;;
4700;SDS011;8724;51.272;6.554;2022-10-16T03:33:10;1.30;;;1.20;;
4700;SDS011;8724;51.272;6.554;2022-10-16T03:35:40;3.33;;;1.10;;
4700;SDS011;8724;51.272;6.554;2022-10-16T03:38:08;2.87;;;1.23;;
4700;SDS011;8724;51.272;6.554;2022-10-16T03:40:36;1.43;;;1.03;;
4700;SDS011;8724;51.272;6.554;2022-10-16T03:43:05;0.70;;;0.70;;
4700;SDS011;8724;51.272;6.554;2022-10-16T03:45:33;1.47;;;1.00;;
4700;SDS011;8724;51.272;6.554;2022-10-16T03:48:02;1.10;;;1.00;;
4700;SDS011;8724;51.272;6.554;2022-10-16T03:50:30;1.37;;;1.27;;
4700;SDS011;8724;51.272;6.554;2022-10-16T03:53:00;1.13;;;1.00;;
4700;SDS011;8724;51.272;6.554;2022-10-16T03:55:28;1.13;;;1.03;;
4700;SDS011;8724;51.272;6.554;2022-10-16T03:57:57;1.10;;;0.90;;
4700;SDS011;8724;51.272;6.554;2022-10-16T04:00:25;2.47;;;0.90;;
4700;SDS011;8724;51.272;6.554;2022-10-16T04:02:58;2.80;;;1.10;;
4700;SDS011;8724;51.272;6.554;2022-10-16T04:05:26;1.50;;;0.90;;
4700;SDS011;8724;51.272;6.554;2022-10-16T04:07:55;1.40;;;1.30;;
4700;SDS011;8724;51.272;6.554;2022-10-16T04:10:26;1.00;;;1.00;;
4700;SDS011;8724;51.272;6.554;2022-10-16T04:12:55;1.70;;;0.93;;
4700;SDS011;8724;51.272;6.554;2022-10-16T04:15:27;2.70;;;0.93;;
4700;SDS011;8724;51.272;6.554;2022-10-16T04:17:56;1.30;;;1.20;;
4700;SDS011;8724;51.272;6.554;2022-10-16T04:20:25;2.17;;;0.90;;
4700;SDS011;8724;51.272;6.554;2022-10-16T04:22:54;0.60;;;0.60;;
4700;SDS011;8724;51.272;6.554;2022-10-16T04:25:24;3.20;;;1.07;;
4700;SDS011;8724;51.272;6.554;2022-10-16T04:27:54;1.00;;;0.90;;
4700;SDS011;8724;51.272;6.554;2022-10-16T04:30:23;1.33;;;0.90;;
4700;SDS011;8724;51.272;6.554;2022-10-16T04:32:53;1.00;;;0.90;;
4700;SDS011;8724;51.272;6.554;2022-10-16T04:35:26;1.87;;;0.97;;
4700;SDS011;8724;51.272;6.554;2022-10-16T04:37:59;4.33;;;1.00;;
4700;SDS011;8724;51.272;6.554;2022-10-16T04:40:30;2.20;;;1.27;;
4700;SDS011;8724;51.272;6.554;2022-10-16T04:43:07;1.73;;;1.00;;
4700;SDS011;8724;51.272;6.554;2022-10-16T04:45:37;1.03;;;0.90;;
4700;SDS011;8724;51.272;6.554;2022-10-16T04:48:06;1.37;;;1.10;;
4700;SDS011;8724;51.272;6.554;2022-10-16T04:50:35;0.90;;;0.90;;
4700;SDS011;8724;51.272;6.554;2022-10-16T04:53:06;1.70;;;0.83;;
4700;SDS011;8724;51.272;6.554;2022-10-16T04:55:35;0.70;;;0.70;;
4700;SDS011;8724;51.272;6.554;2022-10-16T04:58:05;1.23;;;1.13;;
4700;SDS011;8724;51.272;6.554;2022-10-16T05:00:35;1.70;;;0.93;;
4700;SDS011;8724;51.272;6.554;2022-10-16T05:03:05;1.60;;;0.80;;
4700;SDS011;8724;51.272;6.554;2022-10-16T05:05:41;1.27;;;1.00;;
4700;SDS011;8724;51.272;6.554;2022-10-16T05:08:11;2.37;;;1.10;;
4700;SDS011;8724;51.272;6.554;2022-10-16T05:10:46;1.83;;;1.20;;
4700;SDS011;8724;51.272;6.554;2022-10-16T05:13:15;0.80;;;0.80;;
4700;SDS011;8724;51.272;6.554;2022-10-16T05:15:47;3.30;;;1.40;;
4700;SDS011;8724;51.272;6.554;2022-10-16T05:18:17;0.90;;;0.90;;
4700;SDS011;8724;51.272;6.554;2022-10-16T05:20:45;1.10;;;1.00;;
4700;SDS011;8724;51.272;6.554;2022-10-16T05:23:16;1.63;;;1.40;;
4700;SDS011;8724;51.272;6.554;2022-10-16T05:25:54;1.07;;;0.97;;
4700;SDS011;8724;51.272;6.554;2022-10-16T05:28:25;1.43;;;1.20;;
4700;SDS011;8724;51.272;6.554;2022-10-16T05:30:59;1.63;;;1.37;;
4700;SDS011;8724;51.272;6.554;2022-10-16T05:33:33;5.43;;;1.70;;
4700;SDS011;8724;51.272;6.554;2022-10-16T05:36:02;2.90;;;1.17;;
4700;SDS011;8724;51.272;6.554;2022-10-16T05:38:33;1.73;;;1.43;;
4700;SDS011;8724;51.272;6.554;2022-10-16T05:41:05;1.73;;;1.53;;
4700;SDS011;8724;51.272;6.554;2022-10-16T05:43:36;3.23;;;1.53;;
4700;SDS011;8724;51.272;6.554;2022-10-16T05:46:11;3.10;;;2.10;;
4700;SDS011;8724;51.272;6.554;2022-10-16T05:48:46;1.40;;;1.30;;
4700;SDS011;8724;51.272;6.554;2022-10-16T05:51:20;2.93;;;1.63;;
4700;SDS011;8724;51.272;6.554;2022-10-16T05:53:50;2.90;;;1.60;;
4700;SDS011;8724;51.272;6.554;2022-10-16T05:56:20;4.40;;;2.00;;
4700;SDS011;8724;51.272;6.554;2022-10-16T05:58:51;3.57;;;1.97;;
4700;SDS011;8724;51.272;6.554;2022-10-16T06:01:22;3.33;;;2.40;;
4700;SDS011;8724;51.272;6.554;2022-10-16T06:03:54;2.90;;;2.27;;
4700;SDS011;8724;51.272;6.554;2022-10-16T06:06:28;3.30;;;1.67;;
4700;SDS011;8724;51.272;6.554;2022-10-16T06:08:57;3.83;;;2.17;;
4700;SDS011;8724;51.272;6.554;2022-10-16T06:11:27;3.43;;;3.00;;
4700;SDS011;8724;51.272;6.554;2022-10-16T06:13:57;5.47;;;4.03;;
4700;SDS011;8724;51.272;6.554;2022-10-16T06:16:29;40.17;;;31.57;;
4700;SDS011;8724;51.272;6.554;2022-10-16T06:18:57;41.03;;;31.77;;
4700;SDS011;8724;51.272;6.554;2022-10-16T06:21:27;22.27;;;18.20;;
4700;SDS011;8724;51.272;6.554;2022-10-16T06:23:56;16.40;;;11.97;;
4700;SDS011;8724;51.272;6.554;2022-10-16T06:26:27;11.67;;;8.40;;
4700;SDS011;8724;51.272;6.554;2022-10-16T06:28:57;7.80;;;5.83;;
4700;SDS011;8724;51.272;6.554;2022-10-16T06:31:26;6.77;;;4.97;;
4700;SDS011;8724;51.272;6.554;2022-10-16T06:33:59;4.90;;;4.33;;
4700;SDS011;8724;51.272;6.554;2022-10-16T06:36:28;3.90;;;3.60;;
4700;SDS011;8724;51.272;6.554;2022-10-16T06:38:56;9.07;;;3.43;;
4700;SDS011;8724;51.272;6.554;2022-10-16T06:41:24;3.93;;;3.53;;
4700;SDS011;8724;51.272;6.554;2022-10-16T06:43:53;4.33;;;2.87;;
4700;SDS011;8724;51.272;6.554;2022-10-16T06:46:21;3.80;;;2.20;;
4700;SDS011;8724;51.272;6.554;2022-10-16T06:48:51;5.57;;;2.00;;
4700;SDS011;8724;51.272;6.554;2022-10-16T06:51:22;1.80;;;1.70;;
4700;SDS011;8724;51.272;6.554;2022-10-16T06:53:52;2.37;;;1.77;;
4700;SDS011;8724;51.272;6.554;2022-10-16T06:56:30;13.00;;;9.67;;
4700;SDS011;8724;51.272;6.554;2022-10-16T06:59:00;29.53;;;22.13;;
4700;SDS011;8724;51.272;6.554;2022-10-16T07:01:29;24.80;;;20.73;;
4700;SDS011;8724;51.272;6.554;2022-10-16T07:03:58;14.80;;;12.30;;
4700;SDS011;8724;51.272;6.554;2022-10-16T07:06:30;8.30;;;7.27;;
4700;SDS011;8724;51.272;6.554;2022-10-16T07:09:01;5.87;;;4.20;;
4700;SDS011;8724;51.272;6.554;2022-10-16T07:11:31;4.30;;;2.87;;
4700;SDS011;8724;51.272;6.554;2022-10-16T07:13:59;2.57;;;2.37;;
4700;SDS011;8724;51.272;6.554;2022-10-16T07:16:28;1.80;;;1.70;;
4700;SDS011;8724;51.272;6.554;2022-10-16T07:18:58;3.53;;;1.80;;
4700;SDS011;8724;51.272;6.554;2022-10-16T07:21:29;2.30;;;1.67;;
4700;SDS011;8724;51.272;6.554;2022-10-16T07:24:02;1.47;;;1.30;;
4700;SDS011;8724;51.272;6.554;2022-10-16T07:26:33;1.73;;;1.60;;
4700;SDS011;8724;51.272;6.554;2022-10-16T07:29:03;1.43;;;1.33;;
4700;SDS011;8724;51.272;6.554;2022-10-16T07:31:31;1.17;;;1.17;;
4700;SDS011;8724;51.272;6.554;2022-10-16T07:34:00;1.37;;;1.20;;
4700;SDS011;8724;51.272;6.554;2022-10-16T07:36:29;2.20;;;1.60;;
4700;SDS011;8724;51.272;6.554;2022-10-16T07:38:58;2.63;;;1.57;;
4700;SDS011;8724;51.272;6.554;2022-10-16T07:41:26;1.30;;;1.27;;
4700;SDS011;8724;51.272;6.554;2022-10-16T07:43:55;1.50;;;1.40;;
4700;SDS011;8724;51.272;6.554;2022-10-16T07:46:26;2.80;;;1.60;;
4700;SDS011;8724;51.272;6.554;2022-10-16T07:48:56;2.00;;;1.80;;
4700;SDS011;8724;51.272;6.554;2022-10-16T07:51:26;3.00;;;1.93;;
4700;SDS011;8724;51.272;6.554;2022-10-16T07:53:56;2.53;;;2.17;;
4700;SDS011;8724;51.272;6.554;2022-10-16T07:56:25;3.23;;;1.60;;
4700;SDS011;8724;51.272;6.554;2022-10-16T07:58:53;6.17;;;3.33;;
4700;SDS011;8724;51.272;6.554;2022-10-16T08:01:22;4.07;;;3.07;;
4700;SDS011;8724;51.272;6.554;2022-10-16T08:03:51;2.50;;;2.27;;
4700;SDS011;8724;51.272;6.554;2022-10-16T08:06:21;2.50;;;1.80;;
4700;SDS011;8724;51.272;6.554;2022-10-16T08:08:55;2.27;;;1.60;;
4700;SDS011;8724;51.272;6.554;2022-10-16T08:11:25;2.33;;;1.60;;
4700;SDS011;8724;51.272;6.554;2022-10-16T08:13:53;2.80;;;1.70;;
4700;SDS011;8724;51.272;6.554;2022-10-16T08:16:22;8.30;;;1.70;;
4700;SDS011;8724;51.272;6.554;2022-10-16T08:18:50;2.83;;;2.07;;
4700;SDS011;8724;51.272;6.554;2022-10-16T08:21:19;4.13;;;1.70;;
4700;SDS011;8724;51.272;6.554;2022-10-16T08:23:49;2.40;;;1.60;;
4700;SDS011;8724;51.272;6.554;2022-10-16T08:26:25;3.53;;;1.60;;
4700;SDS011;8724;51.272;6.554;2022-10-16T08:28:54;3.53;;;1.77;;
4700;SDS011;8724;51.272;6.554;2022-10-16T08:31:23;4.37;;;1.97;;
4700;SDS011;8724;51.272;6.554;2022-10-16T08:33:52;12.43;;;9.83;;
4700;SDS011;8724;51.272;6.554;2022-10-16T08:36:21;48.83;;;38.90;;
4700;SDS011;8724;51.272;6.554;2022-10-16T08:38:49;26.57;;;19.67;;
4700;SDS011;8724;51.272;6.554;2022-10-16T08:44:26;8.20;;;6.50;;
4700;SDS011;8724;51.272;6.554;2022-10-16T08:47:13;6.23;;;3.60;;
4700;SDS011;8724;51.272;6.554;2022-10-16T08:49:47;2.33;;;1.83;;
4700;SDS011;8724;51.272;6.554;2022-10-16T08:52:23;1.87;;;1.77;;
4700;SDS011;8724;51.272;6.554;2022-10-16T08:54:56;3.37;;;1.60;;
4700;SDS011;8724;51.272;6.554;2022-10-16T08:57:25;2.53;;;1.70;;
4700;SDS011;8724;51.272;6.554;2022-10-16T08:59:57;1.60;;;1.23;;
4700;SDS011;8724;51.272;6.554;2022-10-16T09:02:29;2.70;;;2.50;;
4700;SDS011;8724;51.272;6.554;2022-10-16T09:05:02;25.27;;;20.17;;
4700;SDS011;8724;51.272;6.554;2022-10-16T09:07:45;18.30;;;14.93;;
4700;SDS011;8724;51.272;6.554;2022-10-16T09:10:28;7.63;;;6.83;;
4700;SDS011;8724;51.272;6.554;2022-10-16T09:13:08;3.97;;;3.47;;
4700;SDS011;8724;51.272;6.554;2022-10-16T09:15:49;3.07;;;2.13;;
4700;SDS011;8724;51.272;6.554;2022-10-16T09:18:24;1.70;;;1.37;;
4700;SDS011;8724;51.272;6.554;2022-10-16T09:20:59;2.60;;;1.20;;
4700;SDS011;8724;51.272;6.554;2022-10-16T09:23:37;1.23;;;1.13;;
4700;SDS011;8724;51.272;6.554;2022-10-16T09:26:08;1.30;;;1.20;;
4700;SDS011;8724;51.272;6.554;2022-10-16T09:28:39;3.90;;;1.10;;
4700;SDS011;8724;51.272;6.554;2022-10-16T09:31:12;1.90;;;1.00;;
4700;SDS011;8724;51.272;6.554;2022-10-16T09:33:43;1.33;;;1.10;;
4700;SDS011;8724;51.272;6.554;2022-10-16T09:36:16;2.20;;;1.00;;
4700;SDS011;8724;51.272;6.554;2022-10-16T09:38:45;1.40;;;1.10;;
4700;SDS011;8724;51.272;6.554;2022-10-16T09:41:15;1.70;;;0.90;;
4700;SDS011;8724;51.272;6.554;2022-10-16T09:43:47;2.37;;;1.10;;
4700;SDS011;8724;51.272;6.554;2022-10-16T09:46:22;1.77;;;1.07;;
4700;SDS011;8724;51.272;6.554;2022-10-16T09:48:54;1.50;;;1.00;;
4700;SDS011;8724;51.272;6.554;2022-10-16T09:51:26;2.43;;;0.90;;
4700;SDS011;8724;51.272;6.554;2022-10-16T09:53:56;1.00;;;0.90;;
4700;SDS011;8724;51.272;6.554;2022-10-16T09:56:27;1.00;;;0.83;;
4700;SDS011;8724;51.272;6.554;2022-10-16T09:58:57;37.70;;;29.27;;
4700;SDS011;8724;51.272;6.554;2022-10-16T10:01:31;39.77;;;30.83;;
4700;SDS011;8724;51.272;6.554;2022-10-16T10:04:04;18.00;;;14.33;;
4700;SDS011;8724;51.272;6.554;2022-10-16T10:06:34;13.63;;;8.53;;
4700;SDS011;8724;51.272;6.554;2022-10-16T10:09:06;6.07;;;4.50;;
4700;SDS011;8724;51.272;6.554;2022-10-16T10:11:44;3.17;;;2.57;;
4700;SDS011;8724;51.272;6.554;2022-10-16T10:14:26;1.93;;;1.80;;
4700;SDS011;8724;51.272;6.554;2022-10-16T10:17:10;1.50;;;1.30;;
4700;SDS011;8724;51.272;6.554;2022-10-16T10:19:42;1.80;;;1.20;;
4700;SDS011;8724;51.272;6.554;2022-10-16T10:22:29;2.10;;;1.27;;
4700;SDS011;8724;51.272;6.554;2022-10-16T10:27:53;3.10;;;1.50;;
4700;SDS011;8724;51.272;6.554;2022-10-16T10:30:33;1.37;;;1.10;;
4700;SDS011;8724;51.272;6.554;2022-10-16T10:33:14;2.03;;;1.10;;
4700;SDS011;8724;51.272;6.554;2022-10-16T10:35:51;1.67;;;0.97;;
4700;SDS011;8724;51.272;6.554;2022-10-16T10:38:29;1.57;;;1.20;;
4700;SDS011;8724;51.272;6.554;2022-10-16T10:44:19;1.70;;;1.00;;
4700;SDS011;8724;51.272;6.554;2022-10-16T10:46:56;0.90;;;0.90;;
4700;SDS011;8724;51.272;6.554;2022-10-16T10:49:34;2.57;;;1.00;;
4700;SDS011;8724;51.272;6.554;2022-10-16T10:52:25;2.27;;;1.23;;
4700;SDS011;8724;51.272;6.554;2022-10-16T10:55:06;3.63;;;1.70;;
4700;SDS011;8724;51.272;6.554;2022-10-16T10:57:41;19.43;;;14.53;;
4700;SDS011;8724;51.272;6.554;2022-10-16T11:00:20;27.63;;;22.60;;
4700;SDS011;8724;51.272;6.554;2022-10-16T11:02:57;22.20;;;18.93;;
4700;SDS011;8724;51.272;6.554;2022-10-16T11:05:41;12.43;;;10.27;;
4700;SDS011;8724;51.272;6.554;2022-10-16T11:08:13;8.87;;;7.53;;
4700;SDS011;8724;51.272;6.554;2022-10-16T11:10:48;8.00;;;5.10;;
4700;SDS011;8724;51.272;6.554;2022-10-16T11:13:22;3.37;;;2.87;;
4700;SDS011;8724;51.272;6.554;2022-10-16T11:15:58;2.13;;;1.93;;
4700;SDS011;8724;51.272;6.554;2022-10-16T11:18:30;3.03;;;2.07;;
4700;SDS011;8724;51.272;6.554;2022-10-16T11:21:08;2.27;;;1.70;;
4700;SDS011;8724;51.272;6.554;2022-10-16T11:23:40;1.30;;;1.20;;
4700;SDS011;8724;51.272;6.554;2022-10-16T11:26:17;1.30;;;1.07;;
4700;SDS011;8724;51.272;6.554;2022-10-16T11:28:49;1.13;;;1.00;;
4700;SDS011;8724;51.272;6.554;2022-10-16T11:31:19;1.30;;;1.20;;
4700;SDS011;8724;51.272;6.554;2022-10-16T11:33:58;6.43;;;1.33;;
4700;SDS011;8724;51.272;6.554;2022-10-16T11:36:35;1.53;;;0.80;;
4700;SDS011;8724;51.272;6.554;2022-10-16T11:39:11;1.67;;;1.00;;
4700;SDS011;8724;51.272;6.554;2022-10-16T11:41:48;1.47;;;1.10;;
4700;SDS011;8724;51.272;6.554;2022-10-16T11:44:21;1.00;;;0.90;;
4700;SDS011;8724;51.272;6.554;2022-10-16T11:47:15;1.50;;;0.97;;
4700;SDS011;8724;51.272;6.554;2022-10-16T11:50:17;1.73;;;1.00;;
4700;SDS011;8724;51.272;6.554;2022-10-16T11:52:55;3.00;;;1.20;;
4700;SDS011;8724;51.272;6.554;2022-10-16T11:55:29;1.90;;;1.13;;
4700;SDS011;8724;51.272;6.554;2022-10-16T11:58:03;1.80;;;0.83;;
4700;SDS011;8724;51.272;6.554;2022-10-16T12:00:36;0.83;;;0.83;;
4700;SDS011;8724;51.272;6.554;2022-10-16T12:03:14;0.90;;;0.90;;
4700;SDS011;8724;51.272;6.554;2022-10-16T12:08:42;1.77;;;1.10;;
4700;SDS011;8724;51.272;6.554;2022-10-16T12:11:20;0.97;;;0.70;;
4700;SDS011;8724;51.272;6.554;2022-10-16T12:14:18;1.17;;;0.80;;
4700;SDS011;8724;51.272;6.554;2022-10-16T12:16:52;1.80;;;0.80;;
4700;SDS011;8724;51.272;6.554;2022-10-16T12:19:22;1.20;;;0.70;;
4700;SDS011;8724;51.272;6.554;2022-10-16T12:21:52;1.00;;;0.80;;
4700;SDS011;8724;51.272;6.554;2022-10-16T12:24:29;2.10;;;1.20;;
4700;SDS011;8724;51.272;6.554;2022-10-16T12:27:01;1.53;;;1.03;;
4700;SDS011;8724;51.272;6.554;2022-10-16T12:29:35;2.50;;;0.93;;
4700;SDS011;8724;51.272;6.554;2022-10-16T12:32:05;2.37;;;2.17;;
4700;SDS011;8724;51.272;6.554;2022-10-16T12:35:17;6.80;;;5.97;;
4700;SDS011;8724;51.272;6.554;2022-10-16T12:37:47;17.57;;;12.63;;
4700;SDS011;8724;51.272;6.554;2022-10-16T12:40:23;11.80;;;9.83;;
4700;SDS011;8724;51.272;6.554;2022-10-16T12:42:54;9.53;;;7.90;;
4700;SDS011;8724;51.272;6.554;2022-10-16T12:45:27;6.13;;;5.50;;
4700;SDS011;8724;51.272;6.554;2022-10-16T12:47:57;4.70;;;3.33;;
4700;SDS011;8724;51.272;6.554;2022-10-16T12:50:29;3.63;;;3.03;;
4700;SDS011;8724;51.272;6.554;2022-10-16T12:53:00;3.97;;;2.70;;
4700;SDS011;8724;51.272;6.554;2022-10-16T12:55:33;6.17;;;2.40;;
4700;SDS011;8724;51.272;6.554;2022-10-16T12:58:15;2.40;;;1.83;;
4700;SDS011;8724;51.272;6.554;2022-10-16T13:01:06;1.47;;;1.37;;
4700;SDS011;8724;51.272;6.554;2022-10-16T13:03:58;1.30;;;1.20;;
4700;SDS011;8724;51.272;6.554;2022-10-16T13:06:50;1.90;;;1.23;;
4700;SDS011;8724;51.272;6.554;2022-10-16T13:09:31;3.70;;;1.43;;
4700;SDS011;8724;51.272;6.554;2022-10-16T13:12:18;3.23;;;1.33;;
4700;SDS011;8724;51.272;6.554;2022-10-16T13:15:12;2.57;;;0.90;;
4700;SDS011;8724;51.272;6.554;2022-10-16T13:18:04;1.23;;;0.87;;
4700;SDS011;8724;51.272;6.554;2022-10-16T13:20:40;1.87;;;0.93;;
4700;SDS011;8724;51.272;6.554;2022-10-16T13:23:21;0.70;;;0.70;;
4700;SDS011;8724;51.272;6.554;2022-10-16T13:25:59;1.30;;;0.97;;
4700;SDS011;8724;51.272;6.554;2022-10-16T13:28:38;1.50;;;1.00;;
4700;SDS011;8724;51.272;6.554;2022-10-16T13:31:10;2.10;;;0.70;;
4700;SDS011;8724;51.272;6.554;2022-10-16T13:33:45;2.03;;;0.70;;
4700;SDS011;8724;51.272;6.554;2022-10-16T13:36:18;0.90;;;0.90;;
4700;SDS011;8724;51.272;6.554;2022-10-16T13:38:57;4.10;;;1.00;;
4700;SDS011;8724;51.272;6.554;2022-10-16T13:41:28;3.60;;;1.00;;
4700;SDS011;8724;51.272;6.554;2022-10-16T13:43:58;1.23;;;0.80;;
4700;SDS011;8724;51.272;6.554;2022-10-16T13:46:26;1.37;;;0.90;;
4700;SDS011;8724;51.272;6.554;2022-10-16T13:48:56;0.60;;;0.60;;
4700;SDS011;8724;51.272;6.554;2022-10-16T13:51:25;1.13;;;0.70;;
4700;SDS011;8724;51.272;6.554;2022-10-16T13:53:54;1.17;;;0.80;;
4700;SDS011;8724;51.272;6.554;2022-10-16T13:56:24;0.70;;;0.70;;
4700;SDS011;8724;51.272;6.554;2022-10-16T13:58:59;1.40;;;0.73;;
4700;SDS011;8724;51.272;6.554;2022-10-16T14:01:29;0.80;;;0.80;;
4700;SDS011;8724;51.272;6.554;2022-10-16T14:04:00;0.80;;;0.80;;
4700;SDS011;8724;51.272;6.554;2022-10-16T14:06:32;24.63;;;18.17;;
4700;SDS011;8724;51.272;6.554;2022-10-16T14:09:02;24.60;;;19.50;;
4700;SDS011;8724;51.272;6.554;2022-10-16T14:11:36;21.27;;;16.07;;
4700;SDS011;8724;51.272;6.554;2022-10-16T14:14:13;18.30;;;14.70;;
4700;SDS011;8724;51.272;6.554;2022-10-16T14:16:43;16.10;;;13.00;;
4700;SDS011;8724;51.272;6.554;2022-10-16T14:19:13;12.77;;;11.03;;
4700;SDS011;8724;51.272;6.554;2022-10-16T14:21:46;10.63;;;9.20;;
4700;SDS011;8724;51.272;6.554;2022-10-16T14:24:21;8.97;;;7.93;;
4700;SDS011;8724;51.272;6.554;2022-10-16T14:26:54;6.50;;;5.90;;
4700;SDS011;8724;51.272;6.554;2022-10-16T14:29:24;6.80;;;6.00;;
4700;SDS011;8724;51.272;6.554;2022-10-16T14:31:55;5.73;;;5.07;;
4700;SDS011;8724;51.272;6.554;2022-10-16T14:34:25;4.60;;;4.20;;
4700;SDS011;8724;51.272;6.554;2022-10-16T14:36:54;4.67;;;3.97;;
4700;SDS011;8724;51.272;6.554;2022-10-16T14:39:23;3.70;;;3.40;;
4700;SDS011;8724;51.272;6.554;2022-10-16T14:41:55;3.77;;;3.37;;
4700;SDS011;8724;51.272;6.554;2022-10-16T14:44:28;3.20;;;2.90;;
4700;SDS011;8724;51.272;6.554;2022-10-16T14:47:06;2.60;;;2.40;;
4700;SDS011;8724;51.272;6.554;2022-10-16T14:49:37;2.27;;;2.07;;
4700;SDS011;8724;51.272;6.554;2022-10-16T14:52:08;2.50;;;2.30;;
4700;SDS011;8724;51.272;6.554;2022-10-16T14:54:38;1.90;;;1.80;;
4700;SDS011;8724;51.272;6.554;2022-10-16T14:57:13;1.80;;;1.70;;
4700;SDS011;8724;51.272;6.554;2022-10-16T14:59:47;1.80;;;1.70;;
4700;SDS011;8724;51.272;6.554;2022-10-16T15:02:18;1.53;;;1.43;;
4700;SDS011;8724;51.272;6.554;2022-10-16T15:04:52;1.73;;;1.63;;
4700;SDS011;8724;51.272;6.554;2022-10-16T15:07:21;1.30;;;1.20;;
4700;SDS011;8724;51.272;6.554;2022-10-16T15:09:50;1.73;;;1.63;;
4700;SDS011;8724;51.272;6.554;2022-10-16T15:12:19;2.40;;;0.90;;
4700;SDS011;8724;51.272;6.554;2022-10-16T15:14:49;1.20;;;1.10;;
4700;SDS011;8724;51.272;6.554;2022-10-16T15:17:17;1.50;;;1.40;;
4700;SDS011;8724;51.272;6.554;2022-10-16T15:19:47;1.40;;;1.30;;
4700;SDS011;8724;51.272;6.554;2022-10-16T15:22:15;0.83;;;0.83;;
4700;SDS011;8724;51.272;6.554;2022-10-16T15:24:44;1.10;;;1.00;;
4700;SDS011;8724;51.272;6.554;2022-10-16T15:27:12;1.10;;;1.00;;
4700;SDS011;8724;51.272;6.554;2022-10-16T15:29:40;0.97;;;0.97;;
4700;SDS011;8724;51.272;6.554;2022-10-16T15:32:10;0.80;;;0.80;;
4700;SDS011;8724;51.272;6.554;2022-10-16T15:34:38;1.53;;;0.93;;
4700;SDS011;8724;51.272;6.554;2022-10-16T15:37:08;1.50;;;1.10;;
4700;SDS011;8724;51.272;6.554;2022-10-16T15:39:40;2.00;;;1.13;;
4700;SDS011;8724;51.272;6.554;2022-10-16T15:42:09;1.80;;;1.40;;
4700;SDS011;8724;51.272;6.554;2022-10-16T15:44:37;2.63;;;1.30;;
4700;SDS011;8724;51.272;6.554;2022-10-16T15:47:08;1.07;;;0.97;;
4700;SDS011;8724;51.272;6.554;2022-10-16T15:49:38;1.20;;;1.00;;
4700;SDS011;8724;51.272;6.554;2022-10-16T15:52:08;1.13;;;1.03;;
4700;SDS011;8724;51.272;6.554;2022-10-16T15:54:37;1.43;;;1.33;;
4700;SDS011;8724;51.272;6.554;2022-10-16T15:57:05;1.23;;;0.90;;
4700;SDS011;8724;51.272;6.554;2022-10-16T15:59:33;1.73;;;1.20;;